Time;durP1;ratioP1;P1;durP2;ratioP2;P2;SDS_P1;SDS_P2;PMS_P1;PMS_P2;Temp;Humidity;BMP_temperature;BMP_pressure;BME280_temperature;BME280_humidity;BME280_pressure;Samples;Min_cycle;Max_cycle;Signal;HPM_P1;HPM_P2
2023/05/17 00:01:48;;;;;;;9.80;5.05;;;9.40;99.90;;;;;;4960160;28;90796;-34
2023/05/17 00:04:14;;;;;;;12.40;4.78;;;9.40;99.90;;;;;;4960621;28;90927;-34
2023/05/17 00:06:40;;;;;;;8.35;5.20;;;9.30;99.90;;;;;;4987200;28;89460;-33
2023/05/17 00:09:06;;;;;;;10.80;5.60;;;9.40;99.90;;;;;;4961117;28;90176;-31
2023/05/17 00:11:32;;;;;;;15.10;5.82;;;9.40;99.90;;;;;;4960561;28;90442;-31
2023/05/17 00:13:57;;;;;;;11.48;5.03;;;9.40;99.90;;;;;;4961219;28;89623;-33
2023/05/17 00:16:23;;;;;;;14.73;5.45;;;9.30;99.90;;;;;;4960760;28;89312;-35
2023/05/17 00:18:48;;;;;;;14.02;5.15;;;9.30;99.90;;;;;;4960439;28;89559;-34
2023/05/17 00:21:14;;;;;;;11.55;5.15;;;9.30;99.90;;;;;;4962394;28;90337;-35
2023/05/17 00:23:39;;;;;;;9.07;4.22;;;9.30;99.90;;;;;;4972076;28;89340;-33
2023/05/17 00:26:05;;;;;;;20.05;4.55;;;9.20;99.90;;;;;;4969513;28;89534;-30
2023/05/17 00:28:31;;;;;;;11.10;4.47;;;9.10;99.90;;;;;;4972071;28;90307;-31
2023/05/17 00:30:56;;;;;;;11.10;4.68;;;9.10;99.90;;;;;;4969371;28;89606;-35
2023/05/17 00:33:22;;;;;;;7.15;4.43;;;9.00;99.90;;;;;;4962895;28;89905;-35
2023/05/17 00:35:47;;;;;;;9.50;4.43;;;9.00;99.90;;;;;;4966306;28;89423;-36
2023/05/17 00:38:13;;;;;;;14.68;4.72;;;8.90;99.90;;;;;;4962557;28;89411;-32
2023/05/17 00:40:39;;;;;;;8.48;4.18;;;8.90;99.90;;;;;;4966435;28;90078;-35
2023/05/17 00:43:04;;;;;;;12.20;5.28;;;8.80;99.90;;;;;;4969848;28;89628;-31
2023/05/17 00:45:30;;;;;;;9.88;2.88;;;8.80;99.90;;;;;;4964942;28;89463;-33
2023/05/17 00:47:55;;;;;;;13.52;4.50;;;8.70;99.90;;;;;;4981940;28;90205;-35
2023/05/17 00:50:21;;;;;;;14.02;4.25;;;8.70;99.90;;;;;;4981431;28;89756;-34
2023/05/17 00:52:47;;;;;;;11.60;3.05;;;8.60;99.90;;;;;;4970009;28;89878;-33
2023/05/17 00:55:13;;;;;;;6.30;2.42;;;8.60;99.90;;;;;;4975797;28;88124;-32
2023/05/17 00:57:38;;;;;;;7.75;3.90;;;8.60;99.90;;;;;;4969794;28;90471;-31
2023/05/17 01:00:05;;;;;;;5.95;4.50;;;8.60;99.90;;;;;;4974022;28;89871;-33
2023/05/17 01:02:30;;;;;;;19.33;4.20;;;8.50;99.90;;;;;;4998070;28;90287;-32
2023/05/17 01:04:56;;;;;;;7.53;4.90;;;8.50;99.90;;;;;;4997942;28;89460;-36
2023/05/17 01:07:22;;;;;;;12.30;5.10;;;8.40;99.90;;;;;;4987213;28;92115;-33
2023/05/17 01:09:48;;;;;;;6.15;3.10;;;8.50;99.90;;;;;;4995495;28;90444;-31
2023/05/17 01:12:52;;;;;;;18.10;3.58;;;8.50;99.90;;;;;;4998111;28;90418;-33
2023/05/17 01:15:26;;;;;;;7.78;3.78;;;8.50;99.90;;;;;;4996882;28;87622;-34
2023/05/17 01:18:19;;;;;;;10.10;4.82;;;8.50;99.90;;;;;;4997314;28;89989;-30
2023/05/17 01:20:46;;;;;;;8.65;3.78;;;8.50;99.90;;;;;;4990981;28;89966;-33
2023/05/17 01:23:33;;;;;;;9.75;3.63;;;8.40;99.90;;;;;;4996199;28;89154;-30
2023/05/17 01:26:16;;;;;;;9.95;3.90;;;8.40;99.90;;;;;;4994813;28;89073;-33
2023/05/17 01:28:45;;;;;;;19.90;5.15;;;8.30;99.90;;;;;;4995157;28;90390;-33
2023/05/17 01:31:12;;;;;;;14.38;4.35;;;8.30;99.90;;;;;;4994263;28;88657;-33
2023/05/17 01:33:38;;;;;;;8.70;3.72;;;8.20;99.90;;;;;;4997620;28;89366;-32
2023/05/17 01:36:04;;;;;;;13.15;3.03;;;8.20;99.90;;;;;;4995447;28;90249;-30
2023/05/17 01:38:30;;;;;;;17.05;5.45;;;8.20;99.90;;;;;;4995485;28;89780;-32
2023/05/17 01:41:14;;;;;;;10.63;4.55;;;8.20;99.90;;;;;;4993741;28;89801;-31
2023/05/17 01:43:52;;;;;;;18.63;4.40;;;8.10;99.90;;;;;;4995768;28;89681;-32
2023/05/17 01:46:25;;;;;;;12.70;4.07;;;8.10;99.90;;;;;;4975696;28;89929;-33
2023/05/17 01:49:19;;;;;;;36.35;5.25;;;8.10;99.90;;;;;;4998685;28;90998;-31
2023/05/17 01:51:57;;;;;;;18.33;5.30;;;8.10;99.90;;;;;;4999713;28;89323;-30
2023/05/17 01:54:29;;;;;;;7.93;4.27;;;8.10;99.90;;;;;;5000715;28;89878;-31
2023/05/17 01:56:57;;;;;;;9.27;3.38;;;8.00;99.90;;;;;;4999576;28;89207;-31
2023/05/17 01:59:25;;;;;;;13.73;5.47;;;8.10;99.90;;;;;;5000176;28;90070;-30
2023/05/17 02:02:02;;;;;;;5.53;3.97;;;8.00;99.90;;;;;;4996649;28;90145;-31
2023/05/17 02:04:29;;;;;;;10.35;3.20;;;8.10;99.90;;;;;;4999399;28;90763;-33
2023/05/17 02:06:54;;;;;;;10.90;4.70;;;8.10;99.90;;;;;;4989815;28;88944;-33
2023/05/17 02:09:20;;;;;;;9.90;4.75;;;8.10;99.90;;;;;;4973506;28;90570;-30
2023/05/17 02:11:45;;;;;;;22.40;4.57;;;8.10;99.90;;;;;;4964363;28;89223;-32
2023/05/17 02:14:11;;;;;;;17.75;5.50;;;8.00;99.90;;;;;;4961807;28;89553;-31
2023/05/17 02:16:37;;;;;;;12.27;5.53;;;8.00;99.90;;;;;;4963289;28;89263;-32
2023/05/17 02:19:02;;;;;;;8.02;4.28;;;8.00;99.90;;;;;;4961128;28;90153;-31
2023/05/17 02:21:28;;;;;;;13.15;4.15;;;8.00;99.90;;;;;;4962918;28;88563;-30
2023/05/17 02:23:53;;;;;;;14.07;3.78;;;7.90;99.90;;;;;;4962963;28;89519;-30
2023/05/17 02:26:19;;;;;;;10.02;4.40;;;7.90;99.90;;;;;;4962237;28;89073;-30
2023/05/17 02:28:45;;;;;;;16.50;3.30;;;7.90;99.90;;;;;;4975559;28;89489;-31
2023/05/17 02:31:11;;;;;;;10.65;3.90;;;7.90;99.90;;;;;;4962358;28;88707;-34
2023/05/17 02:33:37;;;;;;;12.80;3.85;;;7.80;99.90;;;;;;4974842;28;89451;-33
2023/05/17 02:36:03;;;;;;;11.27;5.03;;;7.80;99.90;;;;;;4963267;28;89487;-30
2023/05/17 02:38:29;;;;;;;11.13;3.35;;;7.80;99.90;;;;;;4962690;28;90112;-32
2023/05/17 02:40:54;;;;;;;6.57;3.08;;;7.70;99.90;;;;;;4975140;28;89855;-32
2023/05/17 02:43:20;;;;;;;7.28;3.42;;;7.70;99.90;;;;;;4986876;28;89872;-35
2023/05/17 02:45:46;;;;;;;10.07;2.92;;;7.70;99.90;;;;;;4962674;28;89555;-35
2023/05/17 02:48:11;;;;;;;9.00;3.60;;;7.70;99.90;;;;;;4984597;28;90195;-31
2023/05/17 02:50:37;;;;;;;11.57;4.15;;;7.80;99.90;;;;;;4999721;28;90630;-35
2023/05/17 02:53:02;;;;;;;10.07;3.08;;;7.70;99.90;;;;;;5001409;28;90859;-31
2023/05/17 02:55:28;;;;;;;8.90;3.78;;;7.70;99.90;;;;;;4995328;28;89446;-30
2023/05/17 02:57:53;;;;;;;10.15;3.85;;;7.70;99.90;;;;;;4970096;28;90304;-32
2023/05/17 03:00:19;;;;;;;8.80;3.70;;;7.70;99.90;;;;;;4961155;28;89403;-31
2023/05/17 03:02:45;;;;;;;8.32;4.32;;;7.60;99.90;;;;;;4961453;28;90126;-34
2023/05/17 03:05:10;;;;;;;12.70;3.33;;;7.60;99.90;;;;;;4970442;28;89496;-32
2023/05/17 03:07:36;;;;;;;14.45;4.10;;;7.60;99.90;;;;;;4989504;28;90451;-34
2023/05/17 03:10:02;;;;;;;11.60;3.50;;;7.50;99.90;;;;;;4963871;28;89613;-34
2023/05/17 03:12:27;;;;;;;9.43;3.17;;;7.50;99.90;;;;;;4961120;28;89580;-31
2023/05/17 03:14:53;;;;;;;6.60;3.28;;;7.40;99.90;;;;;;4973954;28;90632;-31
2023/05/17 03:17:18;;;;;;;8.45;4.18;;;7.40;99.90;;;;;;4971435;28;89579;-31
2023/05/17 03:19:44;;;;;;;8.75;4.40;;;7.40;99.90;;;;;;4962162;28;89738;-35
2023/05/17 03:22:09;;;;;;;6.85;3.35;;;7.30;99.90;;;;;;4983438;28;89291;-32
2023/05/17 03:24:35;;;;;;;7.50;3.30;;;7.30;99.90;;;;;;4990613;28;89850;-36
2023/05/17 03:27:00;;;;;;;14.10;4.85;;;7.30;99.90;;;;;;4972785;28;90142;-32
2023/05/17 03:29:26;;;;;;;9.43;3.03;;;7.30;99.90;;;;;;4961775;28;90118;-31
2023/05/17 03:31:52;;;;;;;27.85;3.78;;;7.30;99.90;;;;;;4961321;28;88958;-32
2023/05/17 03:34:17;;;;;;;15.43;4.38;;;7.20;99.90;;;;;;4960792;28;89972;-31
2023/05/17 03:36:43;;;;;;;9.80;3.38;;;7.20;99.90;;;;;;4961423;28;89900;-31
2023/05/17 03:39:08;;;;;;;9.05;3.85;;;7.20;99.90;;;;;;4960266;28;90590;-31
2023/05/17 03:41:34;;;;;;;18.48;3.85;;;7.20;99.90;;;;;;4972577;28;90084;-33
2023/05/17 03:44:00;;;;;;;11.70;3.55;;;7.20;99.90;;;;;;4962532;28;89661;-31
2023/05/17 03:46:25;;;;;;;10.80;4.05;;;7.30;99.90;;;;;;4973098;28;89806;-33
2023/05/17 03:48:51;;;;;;;9.43;4.32;;;7.30;99.90;;;;;;4990912;28;89682;-31
2023/05/17 03:51:17;;;;;;;14.00;3.25;;;7.40;99.90;;;;;;4994166;28;90515;-31
2023/05/17 03:53:42;;;;;;;16.45;3.75;;;7.40;99.90;;;;;;4992159;28;89191;-33
2023/05/17 03:56:09;;;;;;;13.50;3.95;;;7.40;99.90;;;;;;4997990;28;90265;-31
2023/05/17 03:58:35;;;;;;;9.15;4.20;;;7.40;99.90;;;;;;4990486;28;89772;-31
2023/05/17 04:01:02;;;;;;;9.68;2.72;;;7.40;99.90;;;;;;4996677;28;88217;-33
2023/05/17 04:03:27;;;;;;;14.82;5.22;;;7.40;99.90;;;;;;4983379;28;89235;-32
2023/05/17 04:05:59;;;;;;;7.45;2.95;;;7.50;99.90;;;;;;4995208;28;90395;-36
2023/05/17 04:08:25;;;;;;;7.28;3.35;;;7.50;99.90;;;;;;4999014;28;89370;-33
2023/05/17 04:10:50;;;;;;;3.90;3.55;;;7.50;99.90;;;;;;4977889;28;90484;-31
2023/05/17 04:13:16;;;;;;;9.07;3.67;;;7.60;99.90;;;;;;4959860;28;90485;-31
2023/05/17 04:15:42;;;;;;;3.45;2.80;;;7.60;99.90;;;;;;5014120;22;93263;-32
2023/05/17 04:18:07;;;;;;;12.10;2.92;;;7.60;99.90;;;;;;4983375;28;89338;-31
2023/05/17 04:20:33;;;;;;;10.15;3.85;;;7.60;99.90;;;;;;4988486;28;89622;-32
2023/05/17 04:22:59;;;;;;;17.20;3.30;;;7.60;99.90;;;;;;4980755;28;89367;-32
2023/05/17 04:25:24;;;;;;;7.80;2.97;;;7.70;99.90;;;;;;4988108;28;90168;-33
2023/05/17 04:27:50;;;;;;;10.85;3.50;;;7.70;99.90;;;;;;4980566;28;89909;-35
2023/05/17 04:30:16;;;;;;;11.48;4.05;;;7.70;99.90;;;;;;4979023;28;90637;-32
2023/05/17 04:32:42;;;;;;;8.13;4.07;;;7.80;99.90;;;;;;4980807;28;88760;-35
2023/05/17 04:35:08;;;;;;;7.95;2.70;;;7.80;99.90;;;;;;4981032;28;89915;-34
2023/05/17 04:37:33;;;;;;;9.65;4.50;;;7.80;99.90;;;;;;4994348;28;90125;-32
2023/05/17 04:39:59;;;;;;;19.55;4.18;;;7.90;99.90;;;;;;4984035;28;89527;-31
2023/05/17 04:42:25;;;;;;;8.18;4.47;;;8.00;99.90;;;;;;4984046;28;89432;-31
2023/05/17 04:44:51;;;;;;;8.65;2.75;;;8.00;99.90;;;;;;4992595;28;89922;-30
2023/05/17 04:47:17;;;;;;;9.55;3.50;;;8.10;99.90;;;;;;4990653;28;90044;-34
2023/05/17 04:49:43;;;;;;;10.10;2.92;;;8.20;99.90;;;;;;5017015;28;89960;-33
2023/05/17 04:52:09;;;;;;;5.35;2.58;;;8.20;99.90;;;;;;4998848;28;90234;-36
2023/05/17 04:54:35;;;;;;;12.90;3.13;;;8.20;99.90;;;;;;5008857;28;89614;-34
2023/05/17 04:57:02;;;;;;;9.77;2.65;;;8.30;99.90;;;;;;5002766;27;89368;-31
2023/05/17 04:59:28;;;;;;;12.55;3.00;;;8.30;99.90;;;;;;5005238;27;90170;-31
2023/05/17 05:01:53;;;;;;;9.20;3.30;;;8.40;99.90;;;;;;4999633;28;88464;-32
2023/05/17 05:04:19;;;;;;;8.15;2.88;;;8.40;99.90;;;;;;5008777;28;89481;-30
2023/05/17 05:06:44;;;;;;;9.90;3.28;;;8.40;99.90;;;;;;5015534;28;89558;-32
2023/05/17 05:09:10;;;;;;;24.73;4.45;;;8.40;99.90;;;;;;5004510;28;89072;-33
2023/05/17 05:11:35;;;;;;;18.17;2.97;;;8.40;99.90;;;;;;5014888;28;88714;-33
2023/05/17 05:14:01;;;;;;;9.88;4.25;;;8.50;99.90;;;;;;5004144;28;90214;-33
2023/05/17 05:16:27;;;;;;;3.17;2.35;;;8.50;99.90;;;;;;5002012;28;90638;-32
2023/05/17 05:18:52;;;;;;;7.63;3.05;;;8.60;99.90;;;;;;5017371;28;91844;-32
2023/05/17 05:21:18;;;;;;;4.50;1.63;;;8.60;99.90;;;;;;5003492;28;89034;-32
2023/05/17 05:23:43;;;;;;;5.60;3.08;;;8.60;99.90;;;;;;5005299;28;90858;-30
2023/05/17 05:26:09;;;;;;;11.82;2.15;;;8.60;99.90;;;;;;5003222;28;89805;-32
2023/05/17 05:28:35;;;;;;;4.10;2.60;;;8.80;99.90;;;;;;5004506;28;89946;-34
2023/05/17 05:31:00;;;;;;;10.50;2.78;;;8.80;99.90;;;;;;5011044;28;88828;-34
2023/05/17 05:33:26;;;;;;;11.13;3.15;;;8.80;99.90;;;;;;4998315;28;90862;-32
2023/05/17 05:35:52;;;;;;;7.50;2.00;;;8.90;99.90;;;;;;5010980;28;89878;-32
2023/05/17 05:38:17;;;;;;;5.18;3.72;;;9.00;99.90;;;;;;5010794;28;89478;-34
2023/05/17 05:40:46;;;;;;;4.15;2.53;;;9.00;99.90;;;;;;5010944;28;89417;-31
2023/05/17 05:43:12;;;;;;;4.70;2.47;;;9.10;99.90;;;;;;5008348;28;92397;-31
2023/05/17 05:45:44;;;;;;;5.82;2.03;;;9.20;99.90;;;;;;5002726;28;89225;-31
2023/05/17 05:48:10;;;;;;;5.07;2.90;;;9.30;99.90;;;;;;5015677;27;89432;-34
2023/05/17 05:50:37;;;;;;;5.72;1.75;;;9.50;99.90;;;;;;4982820;28;89350;-32
2023/05/17 05:53:02;;;;;;;9.13;2.70;;;9.80;99.90;;;;;;4979067;28;89753;-33
2023/05/17 05:55:28;;;;;;;3.13;1.42;;;9.80;99.90;;;;;;4999448;28;89828;-31
2023/05/17 05:57:53;;;;;;;8.48;3.40;;;9.90;99.90;;;;;;5018536;28;89766;-34
2023/05/17 06:00:19;;;;;;;3.72;2.00;;;9.90;99.90;;;;;;4999074;28;89067;-32
2023/05/17 06:02:45;;;;;;;6.10;1.75;;;10.00;99.90;;;;;;4997425;28;90523;-32
2023/05/17 06:05:11;;;;;;;6.95;2.15;;;10.00;99.90;;;;;;4998793;28;90374;-31
2023/05/17 06:07:36;;;;;;;4.18;2.15;;;10.10;99.90;;;;;;5010630;28;90530;-30
2023/05/17 06:10:02;;;;;;;5.22;2.50;;;10.30;99.90;;;;;;4997989;28;89626;-35
2023/05/17 06:12:28;;;;;;;5.55;2.90;;;10.40;99.90;;;;;;5010345;28;90535;-32
2023/05/17 06:14:53;;;;;;;4.93;2.05;;;10.50;99.90;;;;;;4984023;28;89663;-32
2023/05/17 06:17:20;;;;;;;3.30;1.90;;;10.50;99.90;;;;;;5007500;28;88962;-31
2023/05/17 06:19:47;;;;;;;6.47;2.40;;;10.60;99.90;;;;;;5000178;28;89684;-32
2023/05/17 06:22:13;;;;;;;7.47;2.03;;;10.70;99.90;;;;;;5007658;27;89943;-35
2023/05/17 06:24:39;;;;;;;4.07;2.22;;;10.90;99.90;;;;;;5005687;28;90010;-32
2023/05/17 06:27:06;;;;;;;3.28;1.73;;;10.80;99.90;;;;;;5006775;28;88839;-32
2023/05/17 06:29:31;;;;;;;1.52;1.42;;;10.90;99.90;;;;;;5003901;28;89522;-31
2023/05/17 06:31:58;;;;;;;4.03;1.70;;;10.80;99.90;;;;;;4998482;28;90498;-29
2023/05/17 06:34:24;;;;;;;3.60;1.92;;;10.80;99.90;;;;;;5000684;28;89328;-36
2023/05/17 06:36:50;;;;;;;4.47;1.33;;;10.70;99.90;;;;;;5005109;27;89050;-34
2023/05/17 06:39:16;;;;;;;5.57;2.08;;;10.60;99.90;;;;;;4997107;28;89766;-35
2023/05/17 06:41:41;;;;;;;7.68;2.63;;;10.60;99.90;;;;;;5000890;27;90134;-31
2023/05/17 06:44:07;;;;;;;4.82;2.42;;;10.50;99.90;;;;;;5003268;28;89754;-31
2023/05/17 06:46:33;;;;;;;11.45;3.50;;;10.50;99.90;;;;;;5013171;27;89280;-32
2023/05/17 06:48:58;;;;;;;9.20;1.77;;;10.50;99.90;;;;;;5008257;28;90129;-32
2023/05/17 06:51:24;;;;;;;4.00;1.50;;;10.40;99.90;;;;;;5007395;28;90720;-31
2023/05/17 06:53:50;;;;;;;9.32;2.85;;;10.40;99.90;;;;;;4993503;28;90656;-33
2023/05/17 06:56:15;;;;;;;2.85;2.15;;;10.40;99.90;;;;;;4987585;27;89676;-32
2023/05/17 06:58:41;;;;;;;2.75;1.83;;;10.90;99.90;;;;;;4992508;28;87769;-35
2023/05/17 07:01:07;;;;;;;5.00;2.53;;;11.20;99.90;;;;;;4995991;28;90445;-32
2023/05/17 07:03:32;;;;;;;10.32;2.38;;;11.60;99.90;;;;;;5002938;28;89301;-36
2023/05/17 07:05:58;;;;;;;8.25;1.92;;;11.90;99.90;;;;;;5008505;27;89278;-33
2023/05/17 07:08:24;;;;;;;11.73;2.55;;;12.10;99.90;;;;;;5000965;28;88908;-30
2023/05/17 07:10:52;;;;;;;3.15;2.17;;;12.10;98.30;;;;;;5012149;28;89195;-35
2023/05/17 07:13:18;;;;;;;12.63;2.65;;;12.20;96.50;;;;;;5002734;28;89731;-33
2023/05/17 07:15:44;;;;;;;7.53;2.63;;;12.20;94.80;;;;;;5000701;28;89131;-33
2023/05/17 07:18:10;;;;;;;9.98;2.28;;;12.10;85.10;;;;;;4990914;28;90635;-35
2023/05/17 07:20:36;;;;;;;5.20;2.83;;;11.90;90.10;;;;;;4990153;28;89714;-31
2023/05/17 07:23:02;;;;;;;21.73;5.07;;;11.90;95.10;;;;;;4995408;28;89942;-35
2023/05/17 07:25:27;;;;;;;4.47;2.22;;;11.80;99.90;;;;;;4998288;28;89361;-34
2023/05/17 07:27:53;;;;;;;7.28;2.55;;;11.70;99.90;;;;;;4998287;28;88491;-34
2023/05/17 07:30:19;;;;;;;5.07;2.53;;;11.60;94.50;;;;;;4998491;28;90957;-33
2023/05/17 07:32:44;;;;;;;9.30;1.95;;;11.50;96.00;;;;;;5015417;28;89845;-33
2023/05/17 07:35:10;;;;;;;16.13;3.20;;;11.40;85.20;;;;;;5010979;28;88986;-32
2023/05/17 07:37:36;;;;;;;10.90;3.40;;;11.10;99.90;;;;;;4996669;28;89247;-31
2023/05/17 07:40:03;;;;;;;9.30;3.00;;;11.20;99.90;;;;;;4994464;28;89888;-33
2023/05/17 07:42:29;;;;;;;9.85;2.88;;;11.10;99.90;;;;;;5005773;28;90811;-35
2023/05/17 07:44:54;;;;;;;7.43;2.63;;;11.20;99.90;;;;;;5008516;28;90547;-33
2023/05/17 07:47:20;;;;;;;5.45;2.45;;;11.30;99.90;;;;;;4991132;28;89221;-36
2023/05/17 07:49:46;;;;;;;13.32;3.08;;;11.30;99.90;;;;;;4993398;28;90293;-31
2023/05/17 07:52:12;;;;;;;4.18;2.95;;;11.30;99.90;;;;;;4995159;28;89600;-31
2023/05/17 07:54:37;;;;;;;8.35;3.63;;;11.20;99.90;;;;;;5004251;27;89245;-33
2023/05/17 07:57:03;;;;;;;18.92;3.88;;;11.30;99.90;;;;;;5003166;28;88549;-33
2023/05/17 07:59:29;;;;;;;17.02;3.88;;;11.40;99.90;;;;;;5002377;28;90245;-32
2023/05/17 08:01:54;;;;;;;10.07;2.92;;;11.30;99.90;;;;;;4998382;28;89779;-35
2023/05/17 08:04:20;;;;;;;16.83;3.53;;;11.30;99.90;;;;;;5001901;28;89518;-30
2023/05/17 08:06:47;;;;;;;11.32;3.55;;;11.10;99.90;;;;;;5012584;28;89263;-33
2023/05/17 08:09:15;;;;;;;11.95;4.15;;;10.90;99.90;;;;;;4997501;28;90321;-32
2023/05/17 08:11:44;;;;;;;8.38;2.80;;;11.00;99.90;;;;;;5010070;28;89387;-33
2023/05/17 08:14:23;;;;;;;10.60;3.45;;;11.10;99.90;;;;;;5007828;28;89258;-35
2023/05/17 08:16:50;;;;;;;13.20;3.33;;;11.10;99.90;;;;;;5008227;28;88906;-30
2023/05/17 08:19:17;;;;;;;8.40;3.70;;;11.10;99.90;;;;;;4995814;28;90285;-32
2023/05/17 08:21:45;;;;;;;10.35;3.03;;;11.10;99.90;;;;;;5004122;28;89654;-32
2023/05/17 08:24:10;;;;;;;7.10;2.60;;;11.20;99.90;;;;;;5015442;28;89554;-33
2023/05/17 08:26:36;;;;;;;15.73;3.35;;;11.30;99.90;;;;;;5009714;28;89139;-32
2023/05/17 08:29:03;;;;;;;4.13;2.58;;;11.40;99.90;;;;;;4990590;28;90215;-33
2023/05/17 08:31:30;;;;;;;23.00;2.72;;;11.50;99.90;;;;;;4985279;28;91269;-31
2023/05/17 08:33:56;;;;;;;6.90;1.77;;;11.50;99.90;;;;;;4994706;28;90262;-35
2023/05/17 08:36:21;;;;;;;11.13;2.40;;;11.60;92.80;;;;;;5004508;28;89536;-31
2023/05/17 08:38:47;;;;;;;7.70;2.03;;;11.50;93.00;;;;;;5000010;28;90494;-34
2023/05/17 08:41:13;;;;;;;6.07;2.17;;;11.40;98.30;;;;;;4996435;28;89773;-32
2023/05/17 08:43:40;;;;;;;6.22;2.88;;;11.50;96.80;;;;;;4996995;28;90529;-34
2023/05/17 08:46:06;;;;;;;11.15;1.98;;;11.50;90.00;;;;;;5014696;28;88907;-33
2023/05/17 08:48:35;;;;;;;10.15;2.72;;;11.70;99.90;;;;;;5012760;28;90261;-33
2023/05/17 08:51:01;;;;;;;7.75;2.65;;;11.80;79.80;;;;;;4996378;28;89008;-33
2023/05/17 08:53:27;;;;;;;5.47;3.00;;;11.70;81.30;;;;;;4995617;28;89544;-32
2023/05/17 08:55:59;;;;;;;12.75;2.58;;;11.80;81.40;;;;;;5004252;28;88660;-32
2023/05/17 08:58:30;;;;;;;3.92;2.20;;;12.00;88.60;;;;;;5010757;27;89584;-35
2023/05/17 09:00:57;;;;;;;6.50;2.38;;;12.20;85.10;;;;;;4994780;28;89740;-32
2023/05/17 09:03:25;;;;;;;16.85;2.53;;;12.00;77.50;;;;;;4987814;28;89490;-33
2023/05/17 09:05:54;;;;;;;6.63;2.65;;;11.90;80.30;;;;;;5006326;27;87738;-34
2023/05/17 09:08:23;;;;;;;12.63;2.97;;;12.00;82.80;;;;;;4998927;28;91002;-32
2023/05/17 09:10:49;;;;;;;3.97;1.98;;;11.80;81.90;;;;;;4995754;28;90177;-35
2023/05/17 09:13:15;;;;;;;7.50;2.28;;;11.80;83.80;;;;;;4993483;28;90073;-33
2023/05/17 09:15:42;;;;;;;5.20;2.75;;;11.90;94.30;;;;;;4958278;28;1136243;-32
2023/05/17 09:18:13;;;;;;;6.35;2.13;;;12.00;94.10;;;;;;5012595;28;90608;-31
2023/05/17 09:20:39;;;;;;;11.98;2.50;;;11.90;90.80;;;;;;5012957;28;90558;-32
2023/05/17 09:23:08;;;;;;;6.35;2.05;;;11.80;90.40;;;;;;5008247;28;91580;-33
2023/05/17 09:25:35;;;;;;;6.40;3.63;;;11.90;96.50;;;;;;4995624;28;89027;-34
2023/05/17 09:28:10;;;;;;;9.27;2.38;;;12.00;93.50;;;;;;5012476;28;90404;-32
2023/05/17 09:30:38;;;;;;;5.25;2.55;;;12.00;96.90;;;;;;5011385;28;89642;-33
2023/05/17 09:33:06;;;;;;;9.47;3.50;;;11.80;90.00;;;;;;4995583;28;91398;-33
2023/05/17 09:35:33;;;;;;;9.57;3.35;;;11.80;86.80;;;;;;4996632;28;90049;-32
2023/05/17 09:38:12;;;;;;;8.75;3.35;;;12.00;90.50;;;;;;4996125;28;90269;-33
2023/05/17 09:40:45;;;;;;;5.30;1.67;;;11.80;91.60;;;;;;4998091;28;90328;-34
2023/05/17 09:43:12;;;;;;;12.82;2.75;;;11.90;91.90;;;;;;5014921;28;91247;-33
2023/05/17 09:45:38;;;;;;;7.63;3.70;;;11.80;92.90;;;;;;4999691;28;89560;-32
2023/05/17 09:48:16;;;;;;;9.50;3.20;;;11.80;94.30;;;;;;5002462;28;90441;-34
2023/05/17 09:50:47;;;;;;;9.63;2.58;;;11.90;91.20;;;;;;4996187;28;89709;-33
2023/05/17 09:53:26;;;;;;;9.98;3.33;;;11.90;99.90;;;;;;4996462;28;89650;-33
2023/05/17 09:55:57;;;;;;;15.45;3.33;;;12.20;99.90;;;;;;4998075;28;88106;-31
2023/05/17 09:58:24;;;;;;;12.52;2.95;;;12.50;99.90;;;;;;5000744;28;90389;-34
2023/05/17 10:00:57;;;;;;;8.07;3.45;;;12.50;90.80;;;;;;4996282;28;90146;-34
2023/05/17 10:03:32;;;;;;;10.38;3.63;;;12.30;88.40;;;;;;4996300;28;88184;-32
2023/05/17 10:05:59;;;;;;;4.85;2.88;;;12.30;84.60;;;;;;4998264;28;90504;-31
2023/05/17 10:08:26;;;;;;;9.75;2.67;;;12.30;81.30;;;;;;4995325;28;90221;-32
2023/05/17 10:10:55;;;;;;;6.82;1.95;;;12.20;78.10;;;;;;4996904;28;90719;-33
2023/05/17 10:13:23;;;;;;;5.07;2.45;;;12.30;77.50;;;;;;5000058;28;90174;-33
2023/05/17 10:15:50;;;;;;;6.53;2.50;;;12.50;88.80;;;;;;5000093;28;89059;-32
2023/05/17 10:18:16;;;;;;;3.45;2.08;;;12.50;79.60;;;;;;5000887;28;89654;-31
2023/05/17 10:20:43;;;;;;;3.47;1.83;;;12.50;76.40;;;;;;5000025;28;88812;-30
2023/05/17 10:23:10;;;;;;;4.57;1.98;;;12.50;75.90;;;;;;5000428;28;89630;-32
2023/05/17 10:25:37;;;;;;;5.47;2.78;;;12.50;76.70;;;;;;5000576;28;89345;-31
2023/05/17 10:28:05;;;;;;;4.55;1.98;;;12.60;77.20;;;;;;4999884;28;91450;-32
2023/05/17 10:30:32;;;;;;;;;;;12.50;74.20;;;;;;5000763;28;90484;-31
2023/05/17 10:32:59;;;;;;;4.80;2.00;;;12.90;76.60;;;;;;5002242;28;88781;-32
2023/05/17 10:35:26;;;;;;;6.22;1.63;;;13.10;75.60;;;;;;5000154;28;90383;-31
2023/05/17 10:37:52;;;;;;;3.77;1.87;;;12.90;72.40;;;;;;4999050;28;90237;-35
2023/05/17 10:40:19;;;;;;;6.00;1.77;;;12.90;71.90;;;;;;4999503;28;90028;-32
2023/05/17 10:42:55;;;;;;;3.70;1.98;;;13.10;77.40;;;;;;5000746;28;89631;-32
2023/05/17 10:45:24;;;;;;;3.42;1.95;;;13.40;78.30;;;;;;4999501;28;88984;-33
2023/05/17 10:47:50;;;;;;;;;;;13.80;79.00;;;;;;4999407;28;90174;-31
2023/05/17 10:50:24;;;;;;;12.73;3.47;;;13.70;73.20;;;;;;5001503;28;90090;-31
2023/05/17 10:52:50;;;;;;;9.27;1.95;;;13.50;76.40;;;;;;5001380;28;89270;-33
2023/05/17 10:55:24;;;;;;;4.80;3.22;;;13.40;74.60;;;;;;5000400;28;90220;-32
2023/05/17 10:58:10;;;;;;;4.25;3.42;;;13.20;74.10;;;;;;5000625;28;90784;-34
2023/05/17 11:00:47;;;;;;;5.22;2.00;;;13.20;85.10;;;;;;4999063;28;91016;-30
2023/05/17 11:03:14;;;;;;;7.88;3.35;;;13.10;77.80;;;;;;4999977;28;89778;-33
2023/05/17 11:06:08;;;;;;;3.45;2.05;;;12.80;77.80;;;;;;5000049;28;88920;-35
2023/05/17 11:08:35;;;;;;;9.48;2.05;;;12.60;76.70;;;;;;4979073;28;90253;-33
2023/05/17 11:11:11;;;;;;;7.13;3.28;;;12.60;80.20;;;;;;4998667;28;89654;-32
2023/05/17 11:13:53;;;;;;;6.18;2.28;;;12.60;82.00;;;;;;4992519;28;89445;-34
2023/05/17 11:16:26;;;;;;;5.22;2.42;;;12.60;78.20;;;;;;5002461;27;89645;-36
2023/05/17 11:19:05;;;;;;;4.15;1.92;;;12.50;80.40;;;;;;4998415;28;91762;-33
2023/05/17 11:21:30;;;;;;;5.38;2.47;;;12.70;80.10;;;;;;4997836;28;90274;-34
2023/05/17 11:24:00;;;;;;;6.32;2.30;;;12.90;78.00;;;;;;4997881;28;89461;-34
2023/05/17 11:26:36;;;;;;;7.30;2.28;;;13.00;79.20;;;;;;5008496;28;89742;-31
2023/05/17 11:29:09;;;;;;;6.18;2.60;;;13.10;79.60;;;;;;5008775;28;90204;-33
2023/05/17 11:31:42;;;;;;;7.53;2.60;;;13.20;77.20;;;;;;4998785;28;89283;-31
2023/05/17 11:34:07;;;;;;;5.45;2.00;;;13.20;76.20;;;;;;5008599;28;89774;-32
2023/05/17 11:36:49;;;;;;;6.53;2.42;;;13.10;80.30;;;;;;5007553;28;89335;-36
2023/05/17 11:39:18;;;;;;;6.22;2.17;;;13.30;76.50;;;;;;4995103;28;91183;-32
2023/05/17 11:41:52;;;;;;;6.90;2.22;;;13.40;76.00;;;;;;5004767;28;89467;-33
2023/05/17 11:44:28;;;;;;;5.15;2.75;;;13.40;77.10;;;;;;5005800;28;89376;-34
2023/05/17 11:47:10;;;;;;;5.35;2.85;;;13.50;75.00;;;;;;4999634;28;89748;-33
2023/05/17 11:49:37;;;;;;;7.18;2.45;;;13.50;73.60;;;;;;4988238;28;90349;-32
2023/05/17 11:52:07;;;;;;;2.95;1.58;;;13.70;77.10;;;;;;4998715;28;90887;-34
2023/05/17 11:54:33;;;;;;;5.97;1.65;;;13.40;70.70;;;;;;4998270;28;90805;-32
2023/05/17 11:57:01;;;;;;;12.20;2.65;;;13.30;71.70;;;;;;4999981;28;90371;-35
2023/05/17 11:59:27;;;;;;;4.57;2.42;;;13.20;74.70;;;;;;4997564;28;89506;-32
2023/05/17 12:01:53;;;;;;;6.57;1.95;;;13.30;71.40;;;;;;4999190;28;91150;-31
2023/05/17 12:04:24;;;;;;;6.07;1.38;;;13.20;70.50;;;;;;4997483;28;89261;-32
2023/05/17 12:06:50;;;;;;;3.15;1.75;;;13.20;70.70;;;;;;4997982;28;88395;-32
2023/05/17 12:09:16;;;;;;;6.32;2.40;;;13.10;69.50;;;;;;4997854;28;90159;-33
2023/05/17 12:11:42;;;;;;;6.80;1.75;;;12.80;71.00;;;;;;4997707;28;89954;-33
2023/05/17 12:14:08;;;;;;;9.27;2.28;;;12.90;70.80;;;;;;4997686;28;88680;-33
2023/05/17 12:16:37;;;;;;;7.85;2.08;;;12.90;71.00;;;;;;5011131;28;89482;-33
2023/05/17 12:19:03;;;;;;;11.30;2.97;;;12.70;71.70;;;;;;4998050;28;89990;-31
2023/05/17 12:21:28;;;;;;;4.03;2.35;;;12.80;74.10;;;;;;5013864;28;89797;-32
2023/05/17 12:23:54;;;;;;;3.05;1.95;;;13.00;72.50;;;;;;5006220;28;89020;-30
2023/05/17 12:26:21;;;;;;;6.63;2.55;;;13.00;70.60;;;;;;5008668;28;89221;-32
2023/05/17 12:28:56;;;;;;;6.82;2.33;;;13.30;76.00;;;;;;5007952;28;91436;-31
2023/05/17 12:31:24;;;;;;;6.13;2.55;;;13.30;71.40;;;;;;5002897;27;90211;-33
2023/05/17 12:33:51;;;;;;;5.25;2.40;;;13.20;70.60;;;;;;5015704;28;89954;-31
2023/05/17 12:36:17;;;;;;;4.20;2.83;;;12.80;70.80;;;;;;5015106;28;88239;-31
2023/05/17 12:38:45;;;;;;;11.35;3.03;;;12.70;72.80;;;;;;5004197;27;90278;-35
2023/05/17 12:41:13;;;;;;;8.07;2.55;;;12.70;71.10;;;;;;5013835;28;91874;-35
2023/05/17 12:43:39;;;;;;;7.95;2.47;;;12.90;73.30;;;;;;5003246;27;91783;-33
2023/05/17 12:46:07;;;;;;;5.38;2.45;;;12.90;71.50;;;;;;5015127;28;89172;-33
2023/05/17 12:48:34;;;;;;;3.83;2.10;;;13.00;73.20;;;;;;5002791;27;90209;-34
2023/05/17 12:51:17;;;;;;;3.83;2.15;;;13.10;73.90;;;;;;5015136;28;90239;-34